sensor_id;sensor_type;location;lat;lon;timestamp;P1;durP1;ratioP1;P2;durP2;ratioP2
42978;SDS011;28616;44.746;19.678;2024-03-23T17:16:27;141.35;;;75.53;;
42978;SDS011;28616;44.746;19.678;2024-03-23T17:18:56;199.57;;;102.00;;
42978;SDS011;28616;44.746;19.678;2024-03-23T17:21:22;258.20;;;134.50;;
42978;SDS011;28616;44.746;19.678;2024-03-23T17:23:48;232.80;;;119.22;;
42978;SDS011;28616;44.746;19.678;2024-03-23T17:26:15;240.70;;;128.45;;
42978;SDS011;28616;44.746;19.678;2024-03-23T17:28:45;243.65;;;133.13;;
42978;SDS011;28616;44.746;19.678;2024-03-23T17:31:15;240.10;;;122.10;;
42978;SDS011;28616;44.746;19.678;2024-03-23T17:34:02;187.77;;;100.75;;
42978;SDS011;28616;44.746;19.678;2024-03-23T17:36:28;191.05;;;97.82;;
42978;SDS011;28616;44.746;19.678;2024-03-23T17:38:55;193.95;;;104.07;;
42978;SDS011;28616;44.746;19.678;2024-03-23T17:41:24;150.45;;;71.25;;
42978;SDS011;28616;44.746;19.678;2024-03-23T17:43:53;105.57;;;41.47;;
42978;SDS011;28616;44.746;19.678;2024-03-23T17:46:19;85.32;;;41.25;;
42978;SDS011;28616;44.746;19.678;2024-03-23T17:48:45;87.32;;;39.72;;
42978;SDS011;28616;44.746;19.678;2024-03-23T17:51:10;69.05;;;38.30;;
42978;SDS011;28616;44.746;19.678;2024-03-23T17:53:39;84.63;;;44.25;;
42978;SDS011;28616;44.746;19.678;2024-03-23T17:56:06;72.15;;;34.47;;
42978;SDS011;28616;44.746;19.678;2024-03-23T17:58:32;55.03;;;30.50;;
42978;SDS011;28616;44.746;19.678;2024-03-23T18:01:04;57.65;;;27.77;;
42978;SDS011;28616;44.746;19.678;2024-03-23T18:05:58;43.83;;;24.40;;
42978;SDS011;28616;44.746;19.678;2024-03-23T18:08:25;51.75;;;24.27;;
42978;SDS011;28616;44.746;19.678;2024-03-23T18:10:51;35.72;;;19.60;;
42978;SDS011;28616;44.746;19.678;2024-03-23T18:13:17;32.92;;;19.35;;
42978;SDS011;28616;44.746;19.678;2024-03-23T18:15:43;49.60;;;22.95;;
42978;SDS011;28616;44.746;19.678;2024-03-23T18:18:08;48.78;;;24.40;;
42978;SDS011;28616;44.746;19.678;2024-03-23T18:20:34;51.30;;;23.42;;
42978;SDS011;28616;44.746;19.678;2024-03-23T18:23:00;50.85;;;23.77;;
42978;SDS011;28616;44.746;19.678;2024-03-23T18:25:27;60.55;;;30.08;;
42978;SDS011;28616;44.746;19.678;2024-03-23T18:27:53;131.35;;;62.60;;
42978;SDS011;28616;44.746;19.678;2024-03-23T18:30:19;163.85;;;79.07;;
42978;SDS011;28616;44.746;19.678;2024-03-23T18:32:45;227.40;;;108.97;;
42978;SDS011;28616;44.746;19.678;2024-03-23T18:35:11;195.38;;;92.65;;
42978;SDS011;28616;44.746;19.678;2024-03-23T18:37:37;142.93;;;70.30;;
42978;SDS011;28616;44.746;19.678;2024-03-23T18:40:02;118.88;;;60.28;;
42978;SDS011;28616;44.746;19.678;2024-03-23T18:42:29;98.13;;;45.45;;
42978;SDS011;28616;44.746;19.678;2024-03-23T18:44:57;112.40;;;57.72;;
42978;SDS011;28616;44.746;19.678;2024-03-23T18:47:23;83.32;;;43.42;;
42978;SDS011;28616;44.746;19.678;2024-03-23T18:49:49;52.05;;;23.33;;
42978;SDS011;28616;44.746;19.678;2024-03-23T18:52:14;45.97;;;18.63;;
42978;SDS011;28616;44.746;19.678;2024-03-23T18:54:40;44.42;;;15.52;;
42978;SDS011;28616;44.746;19.678;2024-03-23T18:57:06;46.83;;;21.58;;
42978;SDS011;28616;44.746;19.678;2024-03-23T18:59:32;44.47;;;19.35;;
42978;SDS011;28616;44.746;19.678;2024-03-23T19:01:57;52.83;;;26.05;;
42978;SDS011;28616;44.746;19.678;2024-03-23T19:04:23;49.25;;;22.77;;
42978;SDS011;28616;44.746;19.678;2024-03-23T19:06:49;57.95;;;26.77;;
42978;SDS011;28616;44.746;19.678;2024-03-23T19:09:15;45.00;;;22.15;;
42978;SDS011;28616;44.746;19.678;2024-03-23T19:11:40;33.08;;;17.77;;
42978;SDS011;28616;44.746;19.678;2024-03-23T19:14:06;47.75;;;19.63;;
42978;SDS011;28616;44.746;19.678;2024-03-23T19:16:32;39.50;;;16.38;;
42978;SDS011;28616;44.746;19.678;2024-03-23T19:18:58;29.65;;;13.55;;
42978;SDS011;28616;44.746;19.678;2024-03-23T19:21:24;28.42;;;13.75;;
42978;SDS011;28616;44.746;19.678;2024-03-23T19:23:50;32.53;;;16.45;;
42978;SDS011;28616;44.746;19.678;2024-03-23T19:26:16;29.70;;;15.60;;
42978;SDS011;28616;44.746;19.678;2024-03-23T19:28:42;32.70;;;12.40;;
42978;SDS011;28616;44.746;19.678;2024-03-23T19:31:07;21.88;;;12.35;;
42978;SDS011;28616;44.746;19.678;2024-03-23T19:33:35;25.88;;;12.88;;
42978;SDS011;28616;44.746;19.678;2024-03-23T19:36:01;22.08;;;12.35;;
42978;SDS011;28616;44.746;19.678;2024-03-23T19:38:28;19.48;;;11.63;;
42978;SDS011;28616;44.746;19.678;2024-03-23T19:40:57;24.92;;;12.00;;
42978;SDS011;28616;44.746;19.678;2024-03-23T19:43:24;32.70;;;13.90;;
42978;SDS011;28616;44.746;19.678;2024-03-23T19:45:51;37.63;;;16.85;;
42978;SDS011;28616;44.746;19.678;2024-03-23T19:48:20;35.45;;;16.13;;
42978;SDS011;28616;44.746;19.678;2024-03-23T19:50:59;33.78;;;16.02;;
42978;SDS011;28616;44.746;19.678;2024-03-23T19:53:25;32.35;;;15.23;;
42978;SDS011;28616;44.746;19.678;2024-03-23T19:55:54;29.27;;;14.05;;
42978;SDS011;28616;44.746;19.678;2024-03-23T19:58:21;33.22;;;13.82;;
42978;SDS011;28616;44.746;19.678;2024-03-23T20:00:47;32.03;;;13.43;;
42978;SDS011;28616;44.746;19.678;2024-03-23T20:03:12;29.55;;;13.57;;
42978;SDS011;28616;44.746;19.678;2024-03-23T20:05:38;19.10;;;12.63;;
42978;SDS011;28616;44.746;19.678;2024-03-23T20:08:04;27.23;;;13.95;;
42978;SDS011;28616;44.746;19.678;2024-03-23T20:10:32;29.83;;;15.00;;
42978;SDS011;28616;44.746;19.678;2024-03-23T20:12:58;30.77;;;16.77;;
42978;SDS011;28616;44.746;19.678;2024-03-23T20:15:26;37.35;;;15.75;;
42978;SDS011;28616;44.746;19.678;2024-03-23T20:17:53;30.70;;;14.95;;
42978;SDS011;28616;44.746;19.678;2024-03-23T20:20:19;30.67;;;14.88;;
42978;SDS011;28616;44.746;19.678;2024-03-23T20:22:45;29.20;;;15.02;;
42978;SDS011;28616;44.746;19.678;2024-03-23T20:25:10;33.45;;;15.70;;
42978;SDS011;28616;44.746;19.678;2024-03-23T20:27:36;32.08;;;14.20;;
42978;SDS011;28616;44.746;19.678;2024-03-23T20:30:05;31.65;;;14.00;;
42978;SDS011;28616;44.746;19.678;2024-03-23T20:32:32;28.00;;;14.82;;
42978;SDS011;28616;44.746;19.678;2024-03-23T20:34:58;37.03;;;15.93;;
42978;SDS011;28616;44.746;19.678;2024-03-23T20:37:24;31.00;;;15.65;;
42978;SDS011;28616;44.746;19.678;2024-03-23T20:39:49;36.30;;;15.90;;
42978;SDS011;28616;44.746;19.678;2024-03-23T20:42:15;38.45;;;18.30;;
42978;SDS011;28616;44.746;19.678;2024-03-23T20:44:41;32.55;;;18.33;;
42978;SDS011;28616;44.746;19.678;2024-03-23T20:47:07;31.38;;;14.43;;
